»·PEaware :: N781BT KBFL-KLAS

N781BT :: KBFL-KLAS

FLIGHT INFORMATION

Flight Status: Arrived
Operator: Privately registered:
United States
More flights under this callsign
Pilot: Jereme M. (20698)
Aircraft: CESSNA 310
(C310)
More flights by this aircraft type
Origin: KBFL Meadows
United States
Destination: KLAS McCarran Intl
United States
More flights between these airports :: More routes between these airports
Route: MEADO3 PMD HEC CRESO4
File this flight plan on PilotEdge
Remarks:
Altitude:
(Current/Filed)
11,000ft
Speed:
(Current/Filed)
188kts
Departed: 29-Jan-19 07:52 PM
Arrived: 29-Jan-19 09:17 PM
Distance/Time
Traveled:
193nm/1:25
Distance/Time
To Go:
Arrived

Flight Plot

Page will automatically refresh every two minutes.

Flight plan parsing failed; only flown route is shown


Map Options




Map Legend


Flown Route
Filed Route
Departure Airport
Arrival Airport
Navaid (VOR, NDB)
Fix

Horizontal Profiles

Position Reports

Time Latitude Longitude Heading Altitude Ground
Speed
29-Jan-19 19:26 35.429446 -119.046523 123 510ft 0kts
29-Jan-19 19:27 35.429446 -119.046522 123 510ft 0kts
29-Jan-19 19:28 35.429446 -119.046522 123 510ft 0kts
29-Jan-19 19:29 35.429446 -119.046522 123 510ft 0kts
29-Jan-19 19:30 35.429446 -119.046522 123 510ft 0kts
29-Jan-19 19:31 35.429446 -119.046522 123 510ft 0kts
29-Jan-19 19:32 35.429446 -119.046522 123 510ft 0kts
29-Jan-19 19:33 35.429446 -119.046522 123 510ft 0kts
29-Jan-19 19:34 35.429446 -119.046522 123 510ft 0kts
29-Jan-19 19:35 35.429446 -119.046522 123 510ft 0kts
29-Jan-19 19:36 35.429446 -119.046522 123 510ft 0kts
29-Jan-19 19:37 35.429446 -119.046522 123 510ft 0kts
29-Jan-19 19:38 35.429446 -119.046522 123 510ft 0kts
29-Jan-19 19:38 35.429446 -119.046522 123 510ft 0kts
29-Jan-19 19:39 35.429446 -119.046522 123 510ft 0kts
29-Jan-19 19:41 35.429446 -119.046522 123 510ft 0kts
29-Jan-19 19:42 35.429446 -119.046522 123 510ft 0kts
29-Jan-19 19:42 35.429446 -119.046522 123 510ft 0kts
29-Jan-19 19:43 35.429446 -119.046522 123 510ft 0kts
29-Jan-19 19:45 35.429446 -119.046522 123 510ft 0kts
29-Jan-19 19:45 35.429446 -119.046522 123 510ft 0kts
29-Jan-19 19:46 35.429429 -119.046497 132 510ft 3kts
29-Jan-19 19:47 35.427708 -119.046554 137 510ft 7kts
29-Jan-19 19:48 35.426320 -119.044883 131 509ft 8kts
29-Jan-19 19:49 35.425675 -119.044822 238 510ft 0kts
29-Jan-19 19:50 35.425675 -119.044822 238 510ft 0kts
29-Jan-19 19:51 35.428695 -119.049990 314 544ft 89kts
29-Jan-19 19:52 35.449051 -119.077056 313 2023ft 115kts
29-Jan-19 19:53 35.466170 -119.115197 248 3001ft 172kts
29-Jan-19 19:54 35.422301 -119.103114 134 3138ft 200kts
29-Jan-19 19:55 35.387758 -119.061668 134 4992ft 154kts
29-Jan-19 19:56 35.358622 -119.026954 134 6837ft 145kts
29-Jan-19 19:57 35.332670 -118.989402 127 8539ft 146kts
29-Jan-19 19:58 35.305868 -118.951136 130 10251ft 151kts
29-Jan-19 19:59 35.274303 -118.908286 131 11006ft 196kts
29-Jan-19 20:00 35.235620 -118.856887 133 11001ft 209kts
29-Jan-19 20:01 35.195308 -118.804189 132 11001ft 212kts
29-Jan-19 20:02 35.155115 -118.751095 132 11001ft 212kts
29-Jan-19 20:03 35.115132 -118.698163 132 11001ft 211kts
29-Jan-19 20:04 35.075136 -118.645360 132 11001ft 211kts
29-Jan-19 20:05 35.035780 -118.593482 132 11047ft 210kts
29-Jan-19 20:06 34.998116 -118.543920 132 11055ft 211kts
29-Jan-19 20:07 34.958517 -118.491882 132 11048ft 212kts
29-Jan-19 20:08 34.920125 -118.441616 132 11032ft 211kts
29-Jan-19 20:09 34.881020 -118.390182 133 11012ft 210kts
29-Jan-19 20:10 34.842064 -118.339179 133 10987ft 211kts
29-Jan-19 20:11 34.802061 -118.286926 134 11006ft 210kts
29-Jan-19 20:12 34.761566 -118.234322 134 11004ft 213kts
29-Jan-19 20:13 34.721104 -118.181490 134 10999ft 213kts
29-Jan-19 20:14 34.680647 -118.128867 134 10998ft 212kts
29-Jan-19 20:15 34.640177 -118.076333 133 10999ft 212kts
29-Jan-19 20:16 34.637673 -118.006505 81 10997ft 213kts
29-Jan-19 20:17 34.645089 -117.934618 81 10994ft 213kts
29-Jan-19 20:18 34.652793 -117.863646 80 10991ft 211kts
29-Jan-19 20:19 34.660434 -117.793179 81 10990ft 209kts
29-Jan-19 20:20 34.668011 -117.722950 81 10970ft 210kts
29-Jan-19 20:21 34.675694 -117.652035 81 10966ft 211kts
29-Jan-19 20:22 34.683212 -117.581453 81 10963ft 209kts
29-Jan-19 20:23 34.690690 -117.511512 81 10963ft 208kts
29-Jan-19 20:24 34.697973 -117.441979 81 10963ft 206kts
29-Jan-19 20:25 34.705349 -117.372214 81 10985ft 208kts
29-Jan-19 20:26 34.712554 -117.302574 81 10990ft 208kts
29-Jan-19 20:27 34.719898 -117.232789 81 10990ft 207kts
29-Jan-19 20:28 34.727100 -117.163244 81 11008ft 207kts
29-Jan-19 20:29 34.734190 -117.093586 81 11011ft 208kts
29-Jan-19 20:30 34.740976 -117.027148 81 11022ft 208kts
29-Jan-19 20:31 34.748248 -116.956857 81 11034ft 207kts
29-Jan-19 20:32 34.755263 -116.887725 81 11044ft 204kts
29-Jan-19 20:33 34.762011 -116.819589 81 11044ft 204kts
29-Jan-19 20:34 34.767585 -116.763704 81 11042ft 203kts
29-Jan-19 20:35 34.774462 -116.694654 81 11001ft 206kts
29-Jan-19 20:37 34.782407 -116.613783 81 11000ft 204kts
29-Jan-19 20:37 34.788119 -116.556511 81 11001ft 203kts
29-Jan-19 20:38 34.794790 -116.488342 81 11000ft 202kts
29-Jan-19 20:39 34.822037 -116.431562 46 11001ft 200kts
29-Jan-19 20:40 34.859598 -116.381002 45 11016ft 200kts
29-Jan-19 20:41 34.897700 -116.330790 45 11016ft 200kts
29-Jan-19 20:42 34.935639 -116.281168 45 11018ft 198kts
29-Jan-19 20:43 34.973563 -116.231511 45 11017ft 199kts
29-Jan-19 20:44 35.011457 -116.181699 45 11016ft 199kts
29-Jan-19 20:45 35.049239 -116.132038 45 11015ft 200kts
29-Jan-19 20:46 35.086961 -116.082416 45 11009ft 198kts
29-Jan-19 20:47 35.124187 -116.033468 45 11007ft 198kts
29-Jan-19 20:48 35.161902 -115.983765 45 10998ft 198kts
29-Jan-19 20:49 35.199406 -115.934271 45 10993ft 197kts
29-Jan-19 20:50 35.236567 -115.884955 45 11021ft 197kts
29-Jan-19 20:51 35.273658 -115.835680 45 10996ft 200kts
29-Jan-19 20:52 35.307301 -115.791110 45 10988ft 200kts
29-Jan-19 20:53 35.344888 -115.741267 45 10991ft 198kts
29-Jan-19 20:54 35.382113 -115.691726 45 10994ft 196kts
29-Jan-19 20:55 35.419026 -115.642422 45 11001ft 197kts
29-Jan-19 20:56 35.456463 -115.592361 45 11005ft 199kts
29-Jan-19 20:57 35.493728 -115.542438 45 11007ft 196kts
29-Jan-19 20:58 35.530624 -115.492987 45 11009ft 195kts
29-Jan-19 20:59 35.567443 -115.443598 45 11009ft 195kts
29-Jan-19 21:00 35.604584 -115.393759 45 10999ft 198kts
29-Jan-19 21:01 35.648103 -115.351790 30 10445ft 201kts
29-Jan-19 21:02 35.695017 -115.316130 31 9481ft 195kts
29-Jan-19 21:03 35.740436 -115.282296 31 8475ft 187kts
29-Jan-19 21:04 35.784213 -115.249638 31 7466ft 182kts
29-Jan-19 21:05 35.827338 -115.217476 28 7044ft 181kts
29-Jan-19 21:06 35.875356 -115.194138 20 6326ft 185kts
29-Jan-19 21:07 35.922734 -115.171468 21 5519ft 181kts
29-Jan-19 21:08 35.968978 -115.149594 21 5044ft 175kts
29-Jan-19 21:09 36.015724 -115.127833 18 5030ft 182kts
29-Jan-19 21:10 36.063324 -115.122978 5 5272ft 163kts
29-Jan-19 21:11 36.107486 -115.113983 14 5559ft 159kts
29-Jan-19 21:12 36.151500 -115.100830 15 5013ft 166kts
29-Jan-19 21:13 36.163893 -115.124927 193 3863ft 155kts
29-Jan-19 21:14 36.131923 -115.137932 205 2838ft 112kts
29-Jan-19 21:15 36.105287 -115.153159 205 2374ft 97kts
29-Jan-19 21:16 36.089369 -115.163421 292 2185ft 8kts
29-Jan-19 21:17 36.089402 -115.163529 289 2185ft 0kts
29-Jan-19 21:18 36.089737 -115.164432 273 2185ft 7kts
29-Jan-19 21:19 36.086468 -115.167141 217 2185ft 0kts

Navigation Log

Ident Type
Flight plan parsing failed, navigation log unavailable